RKTN/TAE METAR and TAF weather

Enter ICAO airport designator
Station Type Date Time Source
RKTN METAR 2022/12/08 12:00 UTC NOAA

RKTN 081200Z 12001KT CAVOK 03/M04 Q1025


Station Type Date Time Source
RKTN Decoded METAR 2022/12/08 12:00 UTC NOAA

Taegu Ab, Korea, South (RKTN) 35-54N 128-39E 37M
Dec 08, 2022 - 07:00 AM EST / 2022.12.08 1200 UTC
Wind: from the ESE (120 degrees) at 1 MPH (1 KT):0
Visibility: greater than 7 mile(s):0
Temperature: 37 F (3 C)
Dew Point: 24 F (-4 C)
Relative Humidity: 59%
Pressure (altimeter): 30.27 in. Hg (1025 hPa)
ob: RKTN 081200Z 12001KT CAVOK 03/M04 Q1025
cycle: 12

Station Type Date Time Source
RKTN TAF 2022/12/08 12:06 UTC NOAA

TAF RKTN 081100Z 0812/0918 27006KT CAVOK TNM03/0821Z TX11/0906Z
BECMG 0903/0904 9000 BKN030 BKN200

Example: see airport list